Time;durP1;ratioP1;P1;durP2;ratioP2;P2;SDS_P1;SDS_P2;PMS_P1;PMS_P2;Temp;Humidity;BMP_temperature;BMP_pressure;BME280_temperature;BME280_humidity;BME280_pressure;Samples;Min_cycle;Max_cycle;Signal;HPM_P1;HPM_P2
2023/08/11 00:00:12;;;;;;;3.45;1.90;;;;;;;21.52;82.45;101402.47;7359181;19;20018;-62
2023/08/11 00:02:39;;;;;;;3.13;1.52;;;;;;;21.52;82.42;101407.81;7361692;19;20630;-63
2023/08/11 00:05:19;;;;;;;3.75;1.67;;;;;;;21.48;82.63;101407.44;7360664;19;20011;-62
2023/08/11 00:07:50;;;;;;;4.35;1.67;;;;;;;21.45;82.40;101413.19;7360381;19;21042;-63
2023/08/11 00:10:18;;;;;;;4.10;1.70;;;;;;;21.43;82.61;101414.44;7360156;19;20050;-64
2023/08/11 00:12:46;;;;;;;3.38;1.65;;;;;;;21.41;83.16;101409.28;7356880;19;20037;-62
2023/08/11 00:15:13;;;;;;;5.22;1.48;;;;;;;21.39;83.30;101408.66;7359352;19;20026;-66
2023/08/11 00:17:40;;;;;;;3.35;1.70;;;;;;;21.39;83.54;101410.50;7359615;19;20035;-63
2023/08/11 00:20:08;;;;;;;5.20;1.55;;;;;;;21.36;83.36;101401.06;7361741;19;20013;-63
2023/08/11 00:22:37;;;;;;;3.42;1.55;;;;;;;21.36;83.36;101393.03;7359862;19;20018;-63
2023/08/11 00:25:14;;;;;;;9.13;2.28;;;;;;;21.38;83.62;101392.81;7360742;19;20018;-63
2023/08/11 00:27:41;;;;;;;4.35;1.65;;;;;;;21.39;84.15;101389.91;7357138;19;20252;-63
2023/08/11 00:30:09;;;;;;;5.97;2.63;;;;;;;21.38;83.44;101388.28;7356541;19;20011;-63
2023/08/11 00:32:36;;;;;;;3.45;1.80;;;;;;;21.36;83.51;101381.50;7358778;19;20483;-62
2023/08/11 00:35:16;;;;;;;5.85;1.95;;;;;;;21.35;83.75;101372.63;7359985;19;20006;-63
2023/08/11 00:37:44;;;;;;;5.43;1.70;;;;;;;21.34;83.92;101379.00;7358675;19;20373;-63
2023/08/11 00:40:12;;;;;;;4.65;1.52;;;;;;;21.33;83.39;101367.47;7357583;19;20034;-63
2023/08/11 00:42:39;;;;;;;8.60;1.90;;;;;;;21.31;83.69;101374.09;7355061;19;20503;-62
2023/08/11 00:45:09;;;;;;;7.15;1.48;;;;;;;21.27;84.19;101362.16;7358650;19;20082;-63
2023/08/11 00:47:41;;;;;;;5.60;1.63;;;;;;;21.26;84.18;101357.81;7359452;19;20397;-62
2023/08/11 00:50:10;;;;;;;4.90;1.95;;;;;;;21.26;84.40;101357.81;7356767;19;20015;-62
2023/08/11 00:52:38;;;;;;;5.38;1.70;;;;;;;21.28;84.74;101355.78;7360520;19;20044;-62
2023/08/11 00:55:14;;;;;;;10.68;2.00;;;;;;;21.25;84.76;101362.34;7359836;19;20010;-63
2023/08/11 00:57:42;;;;;;;6.43;1.55;;;;;;;21.22;85.11;101368.16;7356507;19;20042;-63
2023/08/11 01:00:13;;;;;;;14.85;1.88;;;;;;;21.23;84.92;101358.25;7357171;19;20082;-62
2023/08/11 01:06:21;;;;;;;6.30;1.50;;;;;;;21.21;85.27;101345.06;7353748;19;20073;-63
2023/08/11 01:09:28;;;;;;;8.93;1.70;;;;;;;21.20;85.34;101345.28;7360159;19;20598;-62
2023/08/11 01:11:58;;;;;;;5.28;1.50;;;;;;;21.20;85.43;101340.75;7355450;19;20602;-63
2023/08/11 01:14:30;;;;;;;7.07;1.67;;;;;;;21.17;86.10;101346.53;7355714;19;20343;-62
2023/08/11 01:17:00;;;;;;;4.40;1.70;;;;;;;21.17;85.98;101337.69;7361144;19;20046;-62
2023/08/11 01:19:31;;;;;;;5.68;1.60;;;;;;;21.17;86.14;101346.53;7357306;19;20623;-62
2023/08/11 01:22:01;;;;;;;7.15;1.67;;;;;;;21.15;86.34;101331.69;7359744;19;20018;-62
2023/08/11 01:24:30;;;;;;;7.53;2.08;;;;;;;21.17;86.42;101340.34;7359555;19;21007;-62
2023/08/11 01:26:57;;;;;;;6.57;1.60;;;;;;;21.16;86.63;101336.84;7353694;19;20018;-63
2023/08/11 01:29:26;;;;;;;4.32;1.65;;;;;;;21.18;86.95;101339.31;7354944;19;20509;-63
2023/08/11 01:31:53;;;;;;;6.75;1.50;;;;;;;21.19;86.25;101343.63;7357478;19;20019;-63
2023/08/11 01:34:21;;;;;;;4.35;1.48;;;;;;;21.16;86.33;101341.38;7356729;19;20602;-63
2023/08/11 01:36:50;;;;;;;5.53;1.40;;;;;;;21.18;86.47;101340.13;7356565;19;20373;-63
2023/08/11 01:39:17;;;;;;;4.90;1.77;;;;;;;21.15;86.51;101340.56;7358583;19;20010;-64
2023/08/11 01:41:44;;;;;;;6.07;1.50;;;;;;;21.12;86.68;101345.47;7355245;19;20003;-63
2023/08/11 01:44:13;;;;;;;9.60;1.45;;;;;;;21.11;86.83;101341.97;7358816;19;20123;-63
2023/08/11 01:46:42;;;;;;;8.65;1.40;;;;;;;21.11;87.03;101330.44;7358463;19;20026;-63
2023/08/11 01:49:12;;;;;;;7.75;1.60;;;;;;;21.09;87.18;101330.66;7361768;19;20025;-63
2023/08/11 01:51:39;;;;;;;9.05;2.00;;;;;;;21.09;87.19;101332.50;7365781;19;20018;-63
2023/08/11 01:54:08;;;;;;;6.07;2.55;;;;;;;21.08;87.52;101326.31;7366037;19;20053;-62
2023/08/11 01:56:37;;;;;;;6.63;1.65;;;;;;;21.11;87.37;101325.91;7359996;19;20015;-63
2023/08/11 01:59:10;;;;;;;7.07;1.52;;;;;;;21.11;87.42;101328.59;7361472;19;20018;-62
2023/08/11 02:01:38;;;;;;;6.63;2.08;;;;;;;21.08;86.96;101325.53;7366255;19;20475;-63
2023/08/11 02:04:06;;;;;;;8.10;1.75;;;;;;;21.08;87.47;101328.19;7364043;19;20148;-63
2023/08/11 02:06:33;;;;;;;7.30;1.80;;;;;;;21.07;87.40;101332.72;7365367;19;20026;-63
2023/08/11 02:09:00;;;;;;;8.65;1.70;;;;;;;21.05;87.99;101331.28;7365872;19;20050;-63
2023/08/11 02:11:27;;;;;;;7.60;1.35;;;;;;;21.03;88.20;101333.34;7359446;19;20111;-62
2023/08/11 02:13:54;;;;;;;7.70;2.08;;;;;;;21.02;88.00;101332.53;7363092;19;20704;-63
2023/08/11 02:16:21;;;;;;;9.40;1.73;;;;;;;20.99;87.94;101332.09;7364212;19;20018;-63
2023/08/11 02:18:48;;;;;;;9.23;2.38;;;;;;;20.99;88.24;101340.13;7365287;19;20290;-63
2023/08/11 02:21:16;;;;;;;8.77;1.55;;;;;;;20.98;88.38;101327.81;7363474;19;20023;-63
2023/08/11 02:23:43;;;;;;;7.03;1.60;;;;;;;20.97;88.24;101315.44;7360858;19;20179;-64
2023/08/11 02:26:12;;;;;;;8.80;2.08;;;;;;;20.98;88.16;101314.44;7362369;19;20021;-63
2023/08/11 02:28:39;;;;;;;11.25;1.90;;;;;;;20.98;88.67;101309.88;7361621;19;20026;-63
2023/08/11 02:31:09;;;;;;;12.90;1.63;;;;;;;21.00;88.44;101305.16;7358704;19;20023;-63
2023/08/11 02:33:37;;;;;;;9.32;1.65;;;;;;;20.97;88.54;101310.09;7361554;19;20050;-62
2023/08/11 02:36:04;;;;;;;9.02;1.42;;;;;;;20.96;88.70;101311.13;7363794;19;21004;-65
2023/08/11 02:38:33;;;;;;;10.13;1.65;;;;;;;20.94;89.33;101311.31;7364603;19;20574;-62
2023/08/11 02:41:00;;;;;;;10.48;1.95;;;;;;;20.96;89.49;101316.47;7356594;19;20023;-62
2023/08/11 02:43:27;;;;;;;7.50;1.75;;;;;;;20.97;89.18;101305.56;7361546;19;20051;-62
2023/08/11 02:45:54;;;;;;;7.63;2.22;;;;;;;20.97;89.83;101307.44;7363285;19;20484;-63
2023/08/11 02:48:21;;;;;;;10.43;1.65;;;;;;;20.98;89.95;101309.88;7363843;19;20114;-62
2023/08/11 02:50:48;;;;;;;7.05;1.55;;;;;;;20.99;89.78;101294.63;7360475;19;20014;-62
2023/08/11 02:53:15;;;;;;;7.57;2.05;;;;;;;20.99;90.40;101295.47;7362953;19;20145;-63
2023/08/11 02:55:42;;;;;;;11.63;1.38;;;;;;;20.97;90.43;101294.88;7362058;19;20010;-61
2023/08/11 02:58:09;;;;;;;11.68;2.95;;;;;;;20.97;90.56;101288.69;7360219;19;20105;-62
2023/08/11 03:00:36;;;;;;;9.82;2.20;;;;;;;20.95;90.63;101288.88;7361404;19;20014;-62
2023/08/11 03:03:03;;;;;;;9.43;1.70;;;;;;;20.95;91.10;101288.88;7363356;19;20439;-62
2023/08/11 03:05:30;;;;;;;9.75;1.10;;;;;;;20.97;90.77;101281.50;7362284;19;20371;-62
2023/08/11 03:07:57;;;;;;;6.40;1.38;;;;;;;20.97;91.30;101284.16;7363796;19;20563;-62
2023/08/11 03:10:25;;;;;;;7.65;1.30;;;;;;;20.97;91.43;101268.09;7358064;19;20014;-63
2023/08/11 03:12:52;;;;;;;8.18;2.55;;;;;;;20.97;91.85;101270.78;7360419;19;20031;-63
2023/08/11 03:15:19;;;;;;;6.30;1.40;;;;;;;21.01;92.25;101271.19;7360499;19;21028;-62
2023/08/11 03:17:47;;;;;;;6.05;1.27;;;;;;;21.01;92.45;101269.31;7363157;19;20018;-62
2023/08/11 03:20:15;;;;;;;9.32;1.30;;;;;;;21.01;92.40;101284.56;7364204;19;20019;-62
2023/08/11 03:22:43;;;;;;;8.88;1.20;;;;;;;20.99;92.50;101273.22;7363814;19;20285;-66
2023/08/11 03:25:11;;;;;;;6.13;1.10;;;;;;;21.00;92.42;101286.41;7363769;19;20026;-62
2023/08/11 03:27:41;;;;;;;11.27;1.77;;;;;;;20.99;92.51;101279.41;7358872;19;20506;-61
2023/08/11 03:30:11;;;;;;;11.73;2.00;;;;;;;20.98;93.00;101272.41;7358658;19;20078;-61
2023/08/11 03:32:38;;;;;;;8.45;2.45;;;;;;;21.01;93.39;101271.19;7358758;19;20082;-63
2023/08/11 03:35:06;;;;;;;10.18;2.35;;;;;;;21.03;93.99;101271.81;7362163;19;20078;-61
2023/08/11 03:37:34;;;;;;;6.47;1.30;;;;;;;21.03;93.64;101263.78;7363314;19;20106;-62
2023/08/11 03:40:05;;;;;;;6.28;1.95;;;;;;;21.02;93.72;101273.66;7360364;19;20006;-62
2023/08/11 03:42:32;;;;;;;8.15;1.83;;;;;;;21.03;93.92;101263.78;7358037;19;21032;-62
2023/08/11 03:45:00;;;;;;;5.63;1.25;;;;;;;21.03;93.74;101267.25;7359327;19;20086;-62
2023/08/11 03:47:27;;;;;;;7.95;1.45;;;;;;;21.04;93.98;101265.41;7361412;19;20018;-62
2023/08/11 03:49:54;;;;;;;12.70;1.90;;;;;;;21.04;94.30;101265.41;7359393;19;20085;-62
2023/08/11 03:52:21;;;;;;;8.18;1.60;;;;;;;21.06;94.33;101260.66;7355142;19;20532;-62
2023/08/11 03:54:48;;;;;;;9.85;1.58;;;;;;;21.06;94.17;101258.81;7360025;19;20136;-62
2023/08/11 03:57:15;;;;;;;12.77;1.55;;;;;;;21.08;94.47;101250.59;7352691;19;20018;-62
2023/08/11 03:59:42;;;;;;;6.47;1.70;;;;;;;21.05;94.56;101250.97;7360407;19;20130;-63
2023/08/11 04:02:09;;;;;;;9.60;1.90;;;;;;;21.04;94.54;101258.19;7360991;19;20711;-62
2023/08/11 04:04:37;;;;;;;10.10;1.92;;;;;;;21.04;94.78;101255.50;7359693;19;20035;-63
2023/08/11 04:07:05;;;;;;;11.02;2.42;;;;;;;21.05;94.83;101254.47;7360663;19;20475;-62
2023/08/11 04:09:46;;;;;;;6.72;1.55;;;;;;;21.06;95.22;101255.31;7355592;19;20479;-63
2023/08/11 04:12:14;;;;;;;8.50;1.53;;;;;;;21.04;95.19;101247.47;7354297;19;20014;-62
2023/08/11 04:14:40;;;;;;;9.00;1.73;;;;;;;21.04;95.27;101250.16;7360747;19;20271;-62
2023/08/11 04:17:08;;;;;;;8.48;2.03;;;;;;;21.04;95.48;101258.19;7359478;19;20022;-63
2023/08/11 04:19:38;;;;;;;11.32;2.20;;;;;;;21.02;95.62;101246.88;7360478;19;20811;-63
2023/08/11 04:22:05;;;;;;;7.38;1.83;;;;;;;21.03;96.26;101250.38;7359121;19;20906;-63
2023/08/11 04:24:32;;;;;;;12.85;1.83;;;;;;;21.03;96.15;101247.72;7359650;19;20018;-63
2023/08/11 04:27:00;;;;;;;7.97;1.33;;;;;;;21.06;95.88;101249.97;7355008;19;20573;-64
2023/08/11 04:29:33;;;;;;;7.65;2.00;;;;;;;21.05;95.80;101251.81;7358382;19;20425;-62
2023/08/11 04:32:11;;;;;;;6.35;1.63;;;;;;;21.05;96.14;101251.81;7352877;19;20117;-62
2023/08/11 04:34:38;;;;;;;7.75;1.67;;;;;;;21.06;96.06;101248.09;7355189;19;20734;-63
2023/08/11 04:37:05;;;;;;;8.27;2.17;;;;;;;21.07;96.34;101244.41;7359587;19;20021;-63
2023/08/11 04:39:46;;;;;;;9.23;1.50;;;;;;;21.10;96.57;101245.81;7360275;19;20014;-63
2023/08/11 04:42:13;;;;;;;8.07;1.70;;;;;;;21.11;96.05;101250.16;7356735;19;20018;-63
2023/08/11 04:44:41;;;;;;;7.47;1.83;;;;;;;21.10;96.17;101254.66;7360983;19;20017;-63
2023/08/11 04:47:08;;;;;;;9.68;1.60;;;;;;;21.09;96.26;101249.53;7358374;19;20921;-63
2023/08/11 04:49:42;;;;;;;10.40;1.80;;;;;;;21.06;96.71;101252.63;7360967;19;20022;-63
2023/08/11 04:52:17;;;;;;;8.23;1.50;;;;;;;21.05;96.90;101253.66;7358485;19;20043;-63
2023/08/11 04:54:44;;;;;;;8.52;1.00;;;;;;;21.04;97.57;101252.84;7357792;19;20020;-62
2023/08/11 04:57:11;;;;;;;8.40;1.23;;;;;;;21.06;97.39;101250.78;7357308;19;20093;-63
2023/08/11 04:59:42;;;;;;;6.20;1.00;;;;;;;21.06;97.15;101258.00;7356554;19;20087;-63
2023/08/11 05:02:09;;;;;;;6.40;1.10;;;;;;;21.08;97.67;101256.72;7358854;19;20021;-63
2023/08/11 05:04:37;;;;;;;5.28;1.30;;;;;;;21.04;97.48;101258.19;7359546;19;21757;-63
2023/08/11 05:07:06;;;;;;;8.82;1.45;;;;;;;21.04;97.89;101258.19;7359061;19;20102;-62
2023/08/11 05:09:44;;;;;;;6.32;1.23;;;;;;;21.06;98.33;101261.47;7357119;19;20014;-63
2023/08/11 05:12:12;;;;;;;4.85;0.80;;;;;;;21.05;97.85;101257.16;7351660;19;20022;-62
2023/08/11 05:14:42;;;;;;;6.85;0.98;;;;;;;21.02;97.90;101265.63;7357922;19;20526;-62
2023/08/11 05:17:09;;;;;;;4.72;1.10;;;;;;;21.03;98.06;101266.44;7361946;19;20037;-62
2023/08/11 05:19:49;;;;;;;5.00;0.98;;;;;;;21.04;98.28;101270.75;7359401;19;20007;-62
2023/08/11 05:22:16;;;;;;;3.63;1.25;;;;;;;21.02;98.39;101267.47;7364844;19;20019;-62
2023/08/11 05:24:43;;;;;;;4.68;1.10;;;;;;;21.01;98.90;101271.19;7363712;19;20022;-62
2023/08/11 05:27:11;;;;;;;5.07;1.00;;;;;;;21.00;98.88;101280.22;7363324;19;20058;-63
2023/08/11 05:29:47;;;;;;;4.60;0.63;;;;;;;20.99;99.21;101283.94;7366122;19;20010;-63
2023/08/11 05:32:14;;;;;;;4.22;0.77;;;;;;;20.99;98.78;101283.94;7365122;19;20030;-63
2023/08/11 05:34:42;;;;;;;4.15;0.80;;;;;;;20.99;98.75;101289.28;7361093;19;20040;-63
2023/08/11 05:37:09;;;;;;;6.22;1.30;;;;;;;21.00;99.00;101291.75;7363432;19;20018;-63
2023/08/11 05:39:46;;;;;;;3.28;0.90;;;;;;;21.03;99.09;101295.88;7363990;19;20021;-63
2023/08/11 05:42:13;;;;;;;3.50;0.73;;;;;;;21.02;98.81;101295.06;7361207;19;20051;-63
2023/08/11 05:44:40;;;;;;;1.77;0.90;;;;;;;20.99;98.00;101303.50;7365894;19;20094;-63
2023/08/11 05:47:08;;;;;;;1.75;0.60;;;;;;;20.96;97.86;101303.09;7366223;19;20817;-62
2023/08/11 05:49:47;;;;;;;1.40;0.60;;;;;;;20.97;97.94;101304.75;7363785;19;20014;-63
2023/08/11 05:52:14;;;;;;;3.80;0.50;;;;;;;20.97;97.67;101299.41;7365465;19;20022;-63
2023/08/11 05:54:41;;;;;;;0.88;0.40;;;;;;;20.99;97.67;101305.34;7360049;19;20086;-63
2023/08/11 05:57:07;;;;;;;5.40;0.70;;;;;;;20.99;96.95;101310.69;7361046;19;20037;-63
2023/08/11 05:59:43;;;;;;;2.17;0.50;;;;;;;20.97;96.90;101304.75;7364465;19;20018;-62
2023/08/11 06:02:10;;;;;;;2.67;0.55;;;;;;;20.98;96.64;101314.44;7362660;19;20483;-63
2023/08/11 06:04:37;;;;;;;2.70;0.40;;;;;;;20.99;96.26;101321.41;7362335;19;20018;-63
2023/08/11 06:07:04;;;;;;;1.75;0.40;;;;;;;20.96;95.51;101322.66;7360924;19;20131;-63
2023/08/11 06:09:47;;;;;;;2.90;0.35;;;;;;;20.99;95.83;101324.91;7364348;19;20935;-62
2023/08/11 06:12:14;;;;;;;1.98;0.40;;;;;;;20.99;95.32;101326.75;7359964;19;20015;-63
2023/08/11 06:14:41;;;;;;;1.23;0.40;;;;;;;20.98;95.50;101331.28;7364449;19;20700;-63
2023/08/11 06:17:08;;;;;;;2.55;0.50;;;;;;;20.98;95.15;101323.25;7363633;19;20018;-62
2023/08/11 06:19:43;;;;;;;1.85;0.40;;;;;;;20.98;94.88;101335.84;7364542;19;20357;-63
2023/08/11 06:22:11;;;;;;;1.63;0.30;;;;;;;20.98;94.96;101331.28;7363544;19;20129;-62
2023/08/11 06:24:38;;;;;;;3.40;0.32;;;;;;;20.99;94.96;101335.59;7363925;19;20031;-62
2023/08/11 06:27:06;;;;;;;0.70;0.20;;;;;;;20.98;94.62;101335.84;7361888;19;20063;-63
2023/08/11 06:29:34;;;;;;;1.35;0.30;;;;;;;20.97;94.30;101332.34;7360632;19;20044;-62
2023/08/11 06:32:10;;;;;;;1.30;0.25;;;;;;;20.98;94.62;101341.19;7359548;19;20566;-65
2023/08/11 06:34:37;;;;;;;3.20;0.30;;;;;;;20.99;94.32;101337.47;7361139;19;20629;-63
2023/08/11 06:37:04;;;;;;;3.20;0.43;;;;;;;20.96;94.63;101333.34;7360908;19;20041;-62
2023/08/11 06:39:48;;;;;;;2.35;0.20;;;;;;;20.99;94.73;101338.28;7363070;19;20745;-63
2023/08/11 06:42:15;;;;;;;1.45;0.20;;;;;;;21.00;94.82;101331.91;7361977;19;20029;-63
2023/08/11 06:44:44;;;;;;;1.55;0.40;;;;;;;21.01;94.63;101340.75;7363243;19;20042;-64
2023/08/11 06:47:11;;;;;;;2.50;0.30;;;;;;;21.01;94.13;101338.09;7364384;19;20109;-63
2023/08/11 06:49:48;;;;;;;4.35;0.52;;;;;;;21.02;94.49;101337.06;7363797;19;21893;-63
2023/08/11 06:52:15;;;;;;;1.83;0.30;;;;;;;21.02;94.38;101345.09;7361754;19;20040;-63
2023/08/11 06:54:42;;;;;;;3.28;0.30;;;;;;;21.02;94.35;101337.06;7362226;19;20014;-62
2023/08/11 06:57:09;;;;;;;2.88;0.30;;;;;;;21.01;93.67;101341.59;7361247;19;20138;-62
2023/08/11 06:59:40;;;;;;;8.32;0.63;;;;;;;21.03;93.74;101336.03;7362723;19;20554;-63
2023/08/11 07:02:09;;;;;;;5.68;0.60;;;;;;;21.03;93.30;101341.38;7362297;19;20053;-63
2023/08/11 07:04:36;;;;;;;2.95;0.45;;;;;;;21.02;93.68;101337.88;7365720;19;20510;-63
2023/08/11 07:07:03;;;;;;;2.92;0.30;;;;;;;21.09;93.90;101332.50;7363232;19;20018;-64
2023/08/11 07:09:47;;;;;;;2.85;0.30;;;;;;;21.13;93.10;101336.44;7363057;19;20028;-63
2023/08/11 07:12:14;;;;;;;2.60;0.40;;;;;;;21.16;92.21;101336.03;7354407;19;20109;-63
2023/08/11 07:14:44;;;;;;;4.78;0.30;;;;;;;21.16;91.95;101333.34;7362183;19;20672;-63
2023/08/11 07:17:11;;;;;;;3.10;0.40;;;;;;;21.19;92.25;101328.38;7361388;19;20018;-63
2023/08/11 07:19:55;;;;;;;2.67;0.35;;;;;;;21.26;92.54;101331.06;7362525;19;20022;-63
2023/08/11 07:22:22;;;;;;;1.85;0.32;;;;;;;21.32;91.73;101343.59;7360999;19;20042;-65
2023/08/11 07:24:49;;;;;;;3.22;0.38;;;;;;;21.36;90.74;101335.97;7362715;19;20034;-64
2023/08/11 07:27:16;;;;;;;3.10;0.40;;;;;;;21.40;91.01;101340.69;7359046;19;20471;-64
2023/08/11 07:29:50;;;;;;;2.75;0.30;;;;;;;21.43;90.16;101342.13;7361785;19;20030;-64
2023/08/11 07:32:29;;;;;;;2.15;0.43;;;;;;;21.44;90.06;101333.88;7363344;19;20024;-64
2023/08/11 07:34:56;;;;;;;5.28;0.52;;;;;;;21.50;90.61;101338.38;7359115;19;20075;-64
2023/08/11 07:37:23;;;;;;;3.28;0.30;;;;;;;21.55;89.72;101346.59;7358119;19;20022;-63
2023/08/11 07:39:56;;;;;;;1.67;0.30;;;;;;;21.56;88.43;101345.56;7361504;19;20318;-63
2023/08/11 07:42:24;;;;;;;1.77;0.30;;;;;;;21.57;88.14;101341.88;7358910;19;20106;-63
2023/08/11 07:44:51;;;;;;;2.97;0.30;;;;;;;21.55;87.28;101348.47;7359028;19;20607;-63
2023/08/11 07:47:18;;;;;;;3.35;0.40;;;;;;;21.57;87.53;101344.53;7361071;19;20019;-63
2023/08/11 07:49:53;;;;;;;3.20;0.35;;;;;;;21.60;87.44;101359.34;7361156;19;20017;-63
2023/08/11 07:52:23;;;;;;;3.75;0.40;;;;;;;21.65;87.74;101357.69;7361241;19;20023;-64
2023/08/11 07:54:50;;;;;;;2.97;0.40;;;;;;;21.78;87.01;101364.88;7358956;19;20455;-64
2023/08/11 07:57:17;;;;;;;6.57;0.40;;;;;;;21.90;86.23;101365.81;7356906;19;20348;-63
2023/08/11 07:59:57;;;;;;;3.75;0.50;;;;;;;22.21;85.84;101367.75;7357125;19;20019;-64
2023/08/11 08:02:26;;;;;;;3.33;1.20;;;;;;;22.32;84.38;101364.38;7361570;19;20014;-63
2023/08/11 08:04:53;;;;;;;2.15;0.63;;;;;;;22.37;83.80;101371.75;7359352;19;20490;-63
2023/08/11 08:07:36;;;;;;;4.75;0.40;;;;;;;22.33;82.74;101367.88;7361337;19;20038;-63
2023/08/11 08:10:08;;;;;;;3.67;0.40;;;;;;;22.29;83.00;101372.03;7358724;19;20026;-63
2023/08/11 08:12:36;;;;;;;1.38;0.40;;;;;;;22.24;82.30;101378.06;7355016;19;20011;-64
2023/08/11 08:15:05;;;;;;;1.52;0.30;;;;;;;22.17;82.15;101380.75;7360672;19;20050;-64
2023/08/11 08:17:33;;;;;;;4.70;0.55;;;;;;;22.12;81.70;101385.94;7360442;19;20094;-62
2023/08/11 08:20:00;;;;;;;3.00;0.35;;;;;;;22.13;81.73;101384.91;7361225;19;20126;-63
2023/08/11 08:22:28;;;;;;;4.32;0.70;;;;;;;22.16;82.28;101380.97;7357783;19;20067;-63
2023/08/11 08:24:56;;;;;;;2.55;0.40;;;;;;;22.21;81.66;101380.31;7362644;19;20467;-62
2023/08/11 08:27:24;;;;;;;2.78;0.70;;;;;;;22.24;82.44;101377.22;7357629;19;20022;-63
2023/08/11 08:29:52;;;;;;;3.92;0.60;;;;;;;22.24;82.73;101383.41;7359965;19;20099;-63
2023/08/11 08:32:20;;;;;;;5.18;0.50;;;;;;;22.25;82.34;101381.56;7356270;19;20030;-63
2023/08/11 08:34:48;;;;;;;5.78;0.55;;;;;;;22.22;81.92;101377.44;7361111;19;20558;-63
2023/08/11 08:37:19;;;;;;;3.92;0.50;;;;;;;22.22;81.87;101381.97;7354867;19;20019;-64
2023/08/11 08:39:55;;;;;;;7.00;0.55;;;;;;;22.22;82.03;101380.13;7361362;19;20023;-63
2023/08/11 08:42:25;;;;;;;1.95;0.30;;;;;;;22.26;82.67;101372.44;7357459;19;20014;-63
2023/08/11 08:44:53;;;;;;;4.07;0.45;;;;;;;22.30;82.67;101377.16;7358659;19;20090;-64
2023/08/11 08:47:22;;;;;;;2.80;0.50;;;;;;;22.32;82.43;101361.69;7359875;19;20022;-63
2023/08/11 08:50:00;;;;;;;5.10;0.50;;;;;;;22.34;81.77;101373.03;7359397;19;20058;-64
2023/08/11 08:52:28;;;;;;;3.88;0.50;;;;;;;22.34;80.62;101373.03;7355820;19;20014;-62
2023/08/11 08:54:56;;;;;;;5.22;0.57;;;;;;;22.34;79.40;101375.72;7356399;19;21234;-61
2023/08/11 08:57:25;;;;;;;3.17;0.50;;;;;;;22.35;79.83;101382.69;7363758;19;20026;-63
2023/08/11 08:59:53;;;;;;;5.88;0.50;;;;;;;22.35;79.11;101382.69;7366753;19;20019;-63
2023/08/11 09:02:21;;;;;;;6.68;0.70;;;;;;;22.34;79.42;101380.25;7364448;19;20031;-62
2023/08/11 09:04:49;;;;;;;4.82;0.90;;;;;;;22.32;79.18;101376.97;7365344;19;20490;-63
2023/08/11 09:07:17;;;;;;;6.38;0.60;;;;;;;22.29;79.35;101372.03;7366689;19;20034;-62
2023/08/11 09:10:01;;;;;;;5.43;1.20;;;;;;;22.25;79.10;101377.00;7364993;19;20014;-63
2023/08/11 09:12:30;;;;;;;5.47;0.68;;;;;;;22.27;79.16;101371.41;7359737;19;20053;-63
2023/08/11 09:14:58;;;;;;;6.32;1.08;;;;;;;22.33;79.63;101363.34;7365630;19;20026;-63
2023/08/11 09:17:25;;;;;;;5.53;0.70;;;;;;;22.40;80.08;101358.72;7365175;19;20022;-63
2023/08/11 09:19:55;;;;;;;10.45;0.95;;;;;;;22.49;79.97;101354.78;7366456;19;20014;-63
2023/08/11 09:22:26;;;;;;;3.70;0.70;;;;;;;22.61;79.26;101363.75;7365487;19;20017;-63
2023/08/11 09:24:55;;;;;;;6.35;0.77;;;;;;;22.71;78.84;101365.13;7367236;19;20471;-63
2023/08/11 09:27:22;;;;;;;6.78;0.93;;;;;;;22.82;78.14;101369.78;7361439;19;20022;-66
2023/08/11 09:29:59;;;;;;;6.07;1.10;;;;;;;22.96;78.94;101357.88;7363797;19;20406;-64
2023/08/11 09:32:27;;;;;;;6.32;0.70;;;;;;;23.03;77.58;101369.41;7364883;19;20102;-63
2023/08/11 09:34:54;;;;;;;4.82;0.57;;;;;;;23.05;76.51;101366.50;7368144;19;20023;-62
2023/08/11 09:37:22;;;;;;;9.00;1.17;;;;;;;23.05;76.38;101375.38;7363325;19;20019;-63
2023/08/11 09:39:55;;;;;;;8.82;1.10;;;;;;;23.02;76.86;101376.63;7361926;19;21911;-64
2023/08/11 09:42:26;;;;;;;6.45;0.90;;;;;;;23.00;76.39;101377.91;7361209;19;20727;-63
2023/08/11 09:44:53;;;;;;;6.35;0.80;;;;;;;22.98;75.42;101377.28;7363057;19;21437;-63
2023/08/11 09:47:20;;;;;;;5.53;0.98;;;;;;;22.99;75.50;101381.63;7366421;19;20510;-63
2023/08/11 09:49:59;;;;;;;5.53;0.50;;;;;;;22.97;75.80;101383.69;7365571;19;20130;-63
2023/08/11 09:52:29;;;;;;;6.75;0.77;;;;;;;22.98;75.89;101390.72;7364256;19;20014;-63
2023/08/11 09:54:57;;;;;;;8.88;1.10;;;;;;;22.96;76.17;101400.84;7363839;19;21828;-63
2023/08/11 09:57:26;;;;;;;6.22;0.70;;;;;;;23.00;76.26;101400.22;7362339;19;20014;-63
2023/08/11 09:59:57;;;;;;;3.58;0.73;;;;;;;23.01;76.33;101391.09;7362865;19;21191;-64
2023/08/11 10:02:28;;;;;;;6.43;0.68;;;;;;;23.05;76.24;101386.13;7364798;19;20369;-62
2023/08/11 10:05:01;;;;;;;9.40;0.85;;;;;;;23.12;76.08;101380.66;7363834;19;20022;-66
2023/08/11 10:07:34;;;;;;;10.75;1.00;;;;;;;23.21;76.22;101384.72;7362796;19;20087;-63
2023/08/11 10:10:14;;;;;;;7.38;0.80;;;;;;;23.32;75.61;101379.41;7362213;19;20300;-63
2023/08/11 10:12:47;;;;;;;7.60;0.73;;;;;;;23.47;75.14;101380.97;7359302;19;20026;-63
2023/08/11 10:15:19;;;;;;;6.43;0.77;;;;;;;23.59;74.08;101388.03;7364166;19;20014;-62
2023/08/11 10:17:48;;;;;;;6.30;0.60;;;;;;;23.68;74.14;101377.78;7364172;19;20018;-62
2023/08/11 10:20:15;;;;;;;6.28;1.10;;;;;;;23.69;73.09;101379.44;7361005;19;20011;-63
2023/08/11 10:22:42;;;;;;;5.00;0.98;;;;;;;23.68;73.33;101372.41;7359909;19;20027;-63
2023/08/11 10:25:10;;;;;;;11.95;1.25;;;;;;;23.61;73.88;101372.53;7362511;19;20026;-63
2023/08/11 10:27:39;;;;;;;7.30;0.95;;;;;;;23.60;74.77;101370.88;7362442;19;20042;-63
2023/08/11 10:30:08;;;;;;;7.28;0.95;;;;;;;23.60;73.84;101373.56;7362424;19;20744;-63
2023/08/11 10:32:36;;;;;;;6.10;0.80;;;;;;;23.62;74.72;101374.13;7361056;19;20400;-63
2023/08/11 10:35:06;;;;;;;5.72;0.63;;;;;;;23.63;74.02;101369.59;7361932;19;20015;-62
2023/08/11 10:37:35;;;;;;;5.63;0.90;;;;;;;23.64;73.44;101371.22;7363285;19;20038;-62
2023/08/11 10:40:10;;;;;;;5.90;0.70;;;;;;;23.61;72.77;101367.16;7358954;19;20560;-63
2023/08/11 10:42:39;;;;;;;4.85;0.60;;;;;;;23.66;73.04;101366.47;7357328;19;20042;-62
2023/08/11 10:45:09;;;;;;;6.53;0.90;;;;;;;23.63;72.92;101366.91;7357629;19;20023;-65
2023/08/11 10:47:38;;;;;;;7.10;0.70;;;;;;;23.61;73.82;101369.84;7363695;19;20018;-64
2023/08/11 10:50:09;;;;;;;7.88;1.55;;;;;;;23.63;73.86;101377.66;7361522;19;20018;-63
2023/08/11 10:52:36;;;;;;;7.57;1.17;;;;;;;23.64;74.19;101371.22;7355229;19;20018;-63
2023/08/11 10:55:04;;;;;;;6.88;0.75;;;;;;;23.64;73.33;101366.69;7362076;19;20018;-63
2023/08/11 10:57:34;;;;;;;4.80;0.60;;;;;;;23.66;71.90;101364.59;7358707;19;20014;-63
2023/08/11 11:00:01;;;;;;;10.57;0.88;;;;;;;23.67;72.24;101362.75;7362976;19;20022;-62
2023/08/11 11:02:29;;;;;;;7.75;0.50;;;;;;;23.71;72.19;101369.31;7356281;19;20594;-62
2023/08/11 11:04:57;;;;;;;3.67;0.50;;;;;;;23.71;71.53;101372.00;7357892;19;20034;-62
2023/08/11 11:07:24;;;;;;;7.07;0.70;;;;;;;23.71;71.30;101363.91;7361651;19;20011;-62
2023/08/11 11:09:58;;;;;;;4.28;0.70;;;;;;;23.70;71.71;101356.91;7363078;19;20073;-61
2023/08/11 11:12:26;;;;;;;5.15;0.70;;;;;;;23.72;72.80;101362.88;7359491;19;20006;-63
2023/08/11 11:14:54;;;;;;;6.72;0.80;;;;;;;23.77;73.15;101361.13;7360630;19;21040;-62
2023/08/11 11:17:21;;;;;;;10.48;1.02;;;;;;;23.81;73.20;101366.91;7361427;19;20050;-63
2023/08/11 11:20:02;;;;;;;6.03;0.85;;;;;;;23.85;73.02;101360.84;7360417;19;20047;-62
2023/08/11 11:22:30;;;;;;;7.95;0.90;;;;;;;23.89;72.85;101358.50;7363251;19;20011;-62
2023/08/11 11:25:01;;;;;;;9.80;1.65;;;;;;;23.93;73.50;101370.44;7364437;19;20747;-62
2023/08/11 11:27:29;;;;;;;4.00;0.83;;;;;;;23.97;72.68;101366.28;7359529;19;20014;-62
2023/08/11 11:30:00;;;;;;;5.85;0.90;;;;;;;23.98;72.34;101361.69;7363075;19;20354;-62
2023/08/11 11:32:28;;;;;;;8.47;0.60;;;;;;;23.95;72.21;101364.84;7360874;19;20570;-62
2023/08/11 11:34:55;;;;;;;5.20;0.73;;;;;;;23.95;72.76;101365.66;7360426;19;20021;-65
2023/08/11 11:37:23;;;;;;;4.97;0.60;;;;;;;23.96;72.96;101361.13;7361002;19;20307;-64